sensor_id;sensor_type;location;lat;lon;timestamp;P1;durP1;ratioP1;P2;durP2;ratioP2
37280;SDS011;23169;41.804;12.596;2022-08-03T00:04:13;12.25;;;4.32;;
37280;SDS011;23169;41.804;12.596;2022-08-03T00:06:42;9.75;;;4.13;;
37280;SDS011;23169;41.804;12.596;2022-08-03T00:09:10;10.55;;;4.40;;
37280;SDS011;23169;41.804;12.596;2022-08-03T00:11:42;6.90;;;4.40;;
37280;SDS011;23169;41.804;12.596;2022-08-03T00:14:10;7.55;;;3.78;;
37280;SDS011;23169;41.804;12.596;2022-08-03T00:16:39;5.55;;;3.88;;
37280;SDS011;23169;41.804;12.596;2022-08-03T00:19:08;7.07;;;4.45;;
37280;SDS011;23169;41.804;12.596;2022-08-03T00:21:36;7.55;;;4.07;;
37280;SDS011;23169;41.804;12.596;2022-08-03T00:24:05;5.72;;;3.95;;
37280;SDS011;23169;41.804;12.596;2022-08-03T00:26:33;8.32;;;3.83;;
37280;SDS011;23169;41.804;12.596;2022-08-03T00:29:02;7.05;;;3.45;;
37280;SDS011;23169;41.804;12.596;2022-08-03T00:31:32;8.38;;;3.83;;
37280;SDS011;23169;41.804;12.596;2022-08-03T00:34:00;10.00;;;4.65;;
37280;SDS011;23169;41.804;12.596;2022-08-03T00:36:29;9.60;;;4.07;;
37280;SDS011;23169;41.804;12.596;2022-08-03T00:38:57;8.10;;;3.85;;
37280;SDS011;23169;41.804;12.596;2022-08-03T00:41:26;8.85;;;4.38;;
37280;SDS011;23169;41.804;12.596;2022-08-03T00:43:54;13.05;;;4.45;;
37280;SDS011;23169;41.804;12.596;2022-08-03T00:46:24;10.95;;;4.78;;
37280;SDS011;23169;41.804;12.596;2022-08-03T00:48:52;8.85;;;3.88;;
37280;SDS011;23169;41.804;12.596;2022-08-03T00:51:21;10.27;;;4.32;;
37280;SDS011;23169;41.804;12.596;2022-08-03T00:53:53;9.82;;;4.03;;
37280;SDS011;23169;41.804;12.596;2022-08-03T00:56:21;10.25;;;4.07;;
37280;SDS011;23169;41.804;12.596;2022-08-03T00:58:49;10.15;;;4.10;;
37280;SDS011;23169;41.804;12.596;2022-08-03T01:01:20;17.65;;;3.97;;
37280;SDS011;23169;41.804;12.596;2022-08-03T01:03:48;8.25;;;3.70;;
37280;SDS011;23169;41.804;12.596;2022-08-03T01:06:33;8.98;;;4.50;;
37280;SDS011;23169;41.804;12.596;2022-08-03T01:12:06;11.80;;;4.10;;
37280;SDS011;23169;41.804;12.596;2022-08-03T01:14:59;9.13;;;3.92;;
37280;SDS011;23169;41.804;12.596;2022-08-03T01:17:48;8.88;;;3.83;;
37280;SDS011;23169;41.804;12.596;2022-08-03T01:20:30;11.63;;;3.60;;
37280;SDS011;23169;41.804;12.596;2022-08-03T01:25:58;6.40;;;3.72;;
37280;SDS011;23169;41.804;12.596;2022-08-03T01:31:25;11.77;;;4.30;;
37280;SDS011;23169;41.804;12.596;2022-08-03T01:34:00;10.95;;;3.83;;
37280;SDS011;23169;41.804;12.596;2022-08-03T01:36:33;6.72;;;3.47;;
37280;SDS011;23169;41.804;12.596;2022-08-03T01:39:05;7.50;;;4.15;;
37280;SDS011;23169;41.804;12.596;2022-08-03T01:41:39;7.90;;;3.47;;
37280;SDS011;23169;41.804;12.596;2022-08-03T01:44:13;8.95;;;3.67;;
37280;SDS011;23169;41.804;12.596;2022-08-03T01:46:42;7.85;;;4.47;;
37280;SDS011;23169;41.804;12.596;2022-08-03T01:49:11;5.97;;;3.45;;
37280;SDS011;23169;41.804;12.596;2022-08-03T01:51:40;8.18;;;3.63;;
37280;SDS011;23169;41.804;12.596;2022-08-03T01:54:10;6.05;;;3.30;;
37280;SDS011;23169;41.804;12.596;2022-08-03T01:56:41;5.43;;;3.17;;
37280;SDS011;23169;41.804;12.596;2022-08-03T01:59:10;6.00;;;3.60;;
37280;SDS011;23169;41.804;12.596;2022-08-03T02:01:40;6.90;;;2.97;;
37280;SDS011;23169;41.804;12.596;2022-08-03T02:04:11;7.28;;;3.20;;
37280;SDS011;23169;41.804;12.596;2022-08-03T02:06:41;3.95;;;2.88;;
37280;SDS011;23169;41.804;12.596;2022-08-03T02:09:14;5.57;;;3.10;;
37280;SDS011;23169;41.804;12.596;2022-08-03T02:11:44;6.68;;;3.03;;
37280;SDS011;23169;41.804;12.596;2022-08-03T02:14:14;9.30;;;3.30;;
37280;SDS011;23169;41.804;12.596;2022-08-03T02:16:43;7.20;;;3.60;;
37280;SDS011;23169;41.804;12.596;2022-08-03T02:19:12;7.82;;;3.50;;
37280;SDS011;23169;41.804;12.596;2022-08-03T02:21:41;8.55;;;4.10;;
37280;SDS011;23169;41.804;12.596;2022-08-03T02:24:11;6.00;;;3.60;;
37280;SDS011;23169;41.804;12.596;2022-08-03T02:26:39;6.55;;;3.90;;
37280;SDS011;23169;41.804;12.596;2022-08-03T02:29:12;12.05;;;3.88;;
37280;SDS011;23169;41.804;12.596;2022-08-03T02:31:46;5.07;;;3.63;;
37280;SDS011;23169;41.804;12.596;2022-08-03T02:34:17;6.55;;;4.00;;
37280;SDS011;23169;41.804;12.596;2022-08-03T02:36:53;7.63;;;3.60;;
37280;SDS011;23169;41.804;12.596;2022-08-03T02:39:27;8.18;;;4.22;;
37280;SDS011;23169;41.804;12.596;2022-08-03T02:41:59;11.15;;;4.07;;
37280;SDS011;23169;41.804;12.596;2022-08-03T02:44:32;10.27;;;4.10;;
37280;SDS011;23169;41.804;12.596;2022-08-03T02:47:05;6.45;;;3.88;;
37280;SDS011;23169;41.804;12.596;2022-08-03T02:49:37;12.93;;;4.80;;
37280;SDS011;23169;41.804;12.596;2022-08-03T02:52:09;12.48;;;4.50;;
37280;SDS011;23169;41.804;12.596;2022-08-03T02:54:39;12.73;;;4.75;;
37280;SDS011;23169;41.804;12.596;2022-08-03T02:57:09;10.57;;;4.50;;
37280;SDS011;23169;41.804;12.596;2022-08-03T02:59:42;10.25;;;4.20;;
37280;SDS011;23169;41.804;12.596;2022-08-03T03:02:11;8.73;;;4.18;;
37280;SDS011;23169;41.804;12.596;2022-08-03T03:04:42;8.23;;;4.07;;
37280;SDS011;23169;41.804;12.596;2022-08-03T03:07:11;8.68;;;4.18;;
37280;SDS011;23169;41.804;12.596;2022-08-03T03:09:41;8.90;;;4.10;;
37280;SDS011;23169;41.804;12.596;2022-08-03T03:12:11;7.90;;;3.90;;
37280;SDS011;23169;41.804;12.596;2022-08-03T03:14:40;10.00;;;4.22;;
37280;SDS011;23169;41.804;12.596;2022-08-03T03:17:09;8.20;;;3.67;;
37280;SDS011;23169;41.804;12.596;2022-08-03T03:19:38;8.65;;;3.85;;
37280;SDS011;23169;41.804;12.596;2022-08-03T03:22:07;8.38;;;3.63;;
37280;SDS011;23169;41.804;12.596;2022-08-03T03:24:37;5.40;;;3.47;;
37280;SDS011;23169;41.804;12.596;2022-08-03T03:27:07;6.32;;;3.65;;
37280;SDS011;23169;41.804;12.596;2022-08-03T03:29:36;7.28;;;3.47;;
37280;SDS011;23169;41.804;12.596;2022-08-03T03:32:05;7.55;;;3.40;;
37280;SDS011;23169;41.804;12.596;2022-08-03T03:34:33;8.80;;;3.97;;
37280;SDS011;23169;41.804;12.596;2022-08-03T03:37:02;5.47;;;3.33;;
37280;SDS011;23169;41.804;12.596;2022-08-03T03:39:31;8.45;;;4.30;;
37280;SDS011;23169;41.804;12.596;2022-08-03T03:41:59;7.20;;;3.50;;
37280;SDS011;23169;41.804;12.596;2022-08-03T03:44:29;8.70;;;3.70;;
37280;SDS011;23169;41.804;12.596;2022-08-03T03:46:57;6.80;;;3.33;;
37280;SDS011;23169;41.804;12.596;2022-08-03T03:49:26;6.93;;;3.63;;
37280;SDS011;23169;41.804;12.596;2022-08-03T03:51:54;7.82;;;3.50;;
37280;SDS011;23169;41.804;12.596;2022-08-03T03:54:22;8.05;;;3.63;;
37280;SDS011;23169;41.804;12.596;2022-08-03T03:56:50;11.60;;;3.60;;
37280;SDS011;23169;41.804;12.596;2022-08-03T03:59:19;7.43;;;3.72;;
37280;SDS011;23169;41.804;12.596;2022-08-03T04:01:47;10.38;;;3.80;;
37280;SDS011;23169;41.804;12.596;2022-08-03T04:04:15;6.75;;;4.07;;
37280;SDS011;23169;41.804;12.596;2022-08-03T04:07:01;9.07;;;4.07;;
37280;SDS011;23169;41.804;12.596;2022-08-03T04:09:48;4.85;;;3.70;;
37280;SDS011;23169;41.804;12.596;2022-08-03T04:12:35;11.23;;;3.58;;
37280;SDS011;23169;41.804;12.596;2022-08-03T04:15:05;12.63;;;3.63;;
37280;SDS011;23169;41.804;12.596;2022-08-03T04:17:51;6.45;;;3.72;;
37280;SDS011;23169;41.804;12.596;2022-08-03T04:20:39;12.23;;;3.53;;
37280;SDS011;23169;41.804;12.596;2022-08-03T04:23:27;6.20;;;3.70;;
37280;SDS011;23169;41.804;12.596;2022-08-03T04:26:19;9.88;;;3.88;;
37280;SDS011;23169;41.804;12.596;2022-08-03T04:29:05;10.70;;;3.70;;
37280;SDS011;23169;41.804;12.596;2022-08-03T04:31:38;8.98;;;3.88;;
37280;SDS011;23169;41.804;12.596;2022-08-03T04:34:10;8.20;;;3.95;;
37280;SDS011;23169;41.804;12.596;2022-08-03T04:36:43;8.63;;;3.60;;
37280;SDS011;23169;41.804;12.596;2022-08-03T04:39:21;7.82;;;3.80;;
37280;SDS011;23169;41.804;12.596;2022-08-03T04:41:56;5.60;;;3.53;;
37280;SDS011;23169;41.804;12.596;2022-08-03T04:44:27;5.55;;;3.13;;
37280;SDS011;23169;41.804;12.596;2022-08-03T04:46:58;10.07;;;4.30;;
37280;SDS011;23169;41.804;12.596;2022-08-03T04:49:27;8.20;;;3.47;;
37280;SDS011;23169;41.804;12.596;2022-08-03T04:51:59;6.47;;;3.72;;
37280;SDS011;23169;41.804;12.596;2022-08-03T04:54:29;7.82;;;3.70;;
37280;SDS011;23169;41.804;12.596;2022-08-03T04:56:57;12.77;;;3.50;;
37280;SDS011;23169;41.804;12.596;2022-08-03T04:59:31;12.18;;;4.07;;
37280;SDS011;23169;41.804;12.596;2022-08-03T05:01:59;9.80;;;3.58;;
37280;SDS011;23169;41.804;12.596;2022-08-03T05:04:29;19.20;;;4.40;;
37280;SDS011;23169;41.804;12.596;2022-08-03T05:06:57;12.73;;;3.72;;
37280;SDS011;23169;41.804;12.596;2022-08-03T05:09:25;13.45;;;4.25;;
37280;SDS011;23169;41.804;12.596;2022-08-03T05:11:53;9.68;;;4.00;;
37280;SDS011;23169;41.804;12.596;2022-08-03T05:14:22;10.65;;;3.88;;
37280;SDS011;23169;41.804;12.596;2022-08-03T05:16:50;15.18;;;3.90;;
37280;SDS011;23169;41.804;12.596;2022-08-03T05:19:18;8.68;;;3.92;;
37280;SDS011;23169;41.804;12.596;2022-08-03T05:21:48;9.48;;;3.83;;
37280;SDS011;23169;41.804;12.596;2022-08-03T05:24:16;10.18;;;3.65;;
37280;SDS011;23169;41.804;12.596;2022-08-03T05:26:45;6.03;;;3.58;;
37280;SDS011;23169;41.804;12.596;2022-08-03T05:29:13;9.82;;;3.80;;
37280;SDS011;23169;41.804;12.596;2022-08-03T05:31:41;7.18;;;3.40;;
37280;SDS011;23169;41.804;12.596;2022-08-03T05:34:09;4.57;;;3.17;;
37280;SDS011;23169;41.804;12.596;2022-08-03T05:36:38;6.28;;;3.65;;
37280;SDS011;23169;41.804;12.596;2022-08-03T05:39:08;7.25;;;3.55;;
37280;SDS011;23169;41.804;12.596;2022-08-03T05:41:36;11.40;;;3.97;;
37280;SDS011;23169;41.804;12.596;2022-08-03T05:44:07;6.97;;;3.67;;
37280;SDS011;23169;41.804;12.596;2022-08-03T05:46:35;12.00;;;3.72;;
37280;SDS011;23169;41.804;12.596;2022-08-03T05:49:06;9.70;;;3.80;;
37280;SDS011;23169;41.804;12.596;2022-08-03T05:51:35;11.98;;;3.97;;
37280;SDS011;23169;41.804;12.596;2022-08-03T05:54:04;7.93;;;3.83;;
37280;SDS011;23169;41.804;12.596;2022-08-03T05:56:33;9.32;;;3.67;;
37280;SDS011;23169;41.804;12.596;2022-08-03T05:59:01;10.70;;;4.07;;
37280;SDS011;23169;41.804;12.596;2022-08-03T06:01:29;13.43;;;4.30;;
37280;SDS011;23169;41.804;12.596;2022-08-03T06:03:59;10.85;;;3.83;;
37280;SDS011;23169;41.804;12.596;2022-08-03T06:06:28;16.65;;;4.70;;
37280;SDS011;23169;41.804;12.596;2022-08-03T06:08:56;14.23;;;3.72;;
37280;SDS011;23169;41.804;12.596;2022-08-03T06:11:24;11.75;;;4.57;;
37280;SDS011;23169;41.804;12.596;2022-08-03T06:13:52;14.02;;;4.40;;
37280;SDS011;23169;41.804;12.596;2022-08-03T06:16:20;15.93;;;5.00;;
37280;SDS011;23169;41.804;12.596;2022-08-03T06:18:48;13.65;;;4.70;;
37280;SDS011;23169;41.804;12.596;2022-08-03T06:21:16;11.20;;;4.30;;
37280;SDS011;23169;41.804;12.596;2022-08-03T06:23:45;10.88;;;4.38;;
37280;SDS011;23169;41.804;12.596;2022-08-03T06:26:14;12.10;;;4.57;;
37280;SDS011;23169;41.804;12.596;2022-08-03T06:28:43;15.02;;;4.70;;
37280;SDS011;23169;41.804;12.596;2022-08-03T06:31:13;12.05;;;4.07;;
37280;SDS011;23169;41.804;12.596;2022-08-03T06:33:41;12.82;;;4.53;;
37280;SDS011;23169;41.804;12.596;2022-08-03T06:36:10;15.30;;;4.18;;
37280;SDS011;23169;41.804;12.596;2022-08-03T06:38:38;10.93;;;3.75;;
37280;SDS011;23169;41.804;12.596;2022-08-03T06:41:07;12.80;;;4.03;;
37280;SDS011;23169;41.804;12.596;2022-08-03T06:43:38;21.27;;;5.32;;
37280;SDS011;23169;41.804;12.596;2022-08-03T06:46:09;16.45;;;4.63;;
37280;SDS011;23169;41.804;12.596;2022-08-03T06:48:38;10.98;;;4.22;;
37280;SDS011;23169;41.804;12.596;2022-08-03T06:51:06;12.75;;;4.07;;
37280;SDS011;23169;41.804;12.596;2022-08-03T06:53:35;13.02;;;4.78;;
37280;SDS011;23169;41.804;12.596;2022-08-03T06:56:03;19.17;;;4.55;;
37280;SDS011;23169;41.804;12.596;2022-08-03T06:58:33;16.40;;;4.07;;
37280;SDS011;23169;41.804;12.596;2022-08-03T07:01:01;13.88;;;4.10;;
37280;SDS011;23169;41.804;12.596;2022-08-03T07:03:30;11.30;;;3.70;;
37280;SDS011;23169;41.804;12.596;2022-08-03T07:05:58;8.40;;;3.78;;
37280;SDS011;23169;41.804;12.596;2022-08-03T07:08:27;11.40;;;3.70;;
37280;SDS011;23169;41.804;12.596;2022-08-03T07:10:56;14.02;;;3.72;;
37280;SDS011;23169;41.804;12.596;2022-08-03T07:13:24;8.88;;;3.40;;
37280;SDS011;23169;41.804;12.596;2022-08-03T07:15:52;10.55;;;3.55;;
37280;SDS011;23169;41.804;12.596;2022-08-03T07:18:20;16.40;;;4.88;;
37280;SDS011;23169;41.804;12.596;2022-08-03T07:20:49;20.27;;;8.73;;
37280;SDS011;23169;41.804;12.596;2022-08-03T07:23:17;12.40;;;5.78;;
37280;SDS011;23169;41.804;12.596;2022-08-03T07:25:46;16.95;;;4.63;;
37280;SDS011;23169;41.804;12.596;2022-08-03T07:28:14;11.13;;;4.43;;
37280;SDS011;23169;41.804;12.596;2022-08-03T07:30:42;15.77;;;4.30;;
37280;SDS011;23169;41.804;12.596;2022-08-03T07:33:10;12.65;;;4.03;;
37280;SDS011;23169;41.804;12.596;2022-08-03T07:35:40;8.73;;;3.40;;
37280;SDS011;23169;41.804;12.596;2022-08-03T07:38:08;10.32;;;3.80;;
37280;SDS011;23169;41.804;12.596;2022-08-03T07:40:36;12.00;;;3.85;;
37280;SDS011;23169;41.804;12.596;2022-08-03T07:43:05;16.88;;;3.90;;
37280;SDS011;23169;41.804;12.596;2022-08-03T07:45:33;11.70;;;4.03;;
37280;SDS011;23169;41.804;12.596;2022-08-03T07:48:01;10.18;;;3.50;;
37280;SDS011;23169;41.804;12.596;2022-08-03T07:50:30;15.52;;;3.83;;
37280;SDS011;23169;41.804;12.596;2022-08-03T07:52:59;11.73;;;4.00;;
37280;SDS011;23169;41.804;12.596;2022-08-03T07:55:30;8.88;;;3.60;;
37280;SDS011;23169;41.804;12.596;2022-08-03T07:58:08;8.68;;;3.65;;
37280;SDS011;23169;41.804;12.596;2022-08-03T08:00:45;9.40;;;3.20;;
37280;SDS011;23169;41.804;12.596;2022-08-03T08:03:13;8.15;;;3.25;;
37280;SDS011;23169;41.804;12.596;2022-08-03T08:05:41;7.65;;;3.40;;
37280;SDS011;23169;41.804;12.596;2022-08-03T08:08:09;8.50;;;3.05;;
37280;SDS011;23169;41.804;12.596;2022-08-03T08:10:38;8.70;;;3.40;;
37280;SDS011;23169;41.804;12.596;2022-08-03T08:13:06;6.95;;;3.78;;
37280;SDS011;23169;41.804;12.596;2022-08-03T08:15:34;9.23;;;3.75;;
37280;SDS011;23169;41.804;12.596;2022-08-03T08:18:03;7.53;;;3.67;;
37280;SDS011;23169;41.804;12.596;2022-08-03T08:20:33;6.95;;;3.70;;
37280;SDS011;23169;41.804;12.596;2022-08-03T08:23:05;9.75;;;3.72;;
37280;SDS011;23169;41.804;12.596;2022-08-03T08:25:34;11.85;;;3.75;;
37280;SDS011;23169;41.804;12.596;2022-08-03T08:28:03;8.40;;;4.22;;
37280;SDS011;23169;41.804;12.596;2022-08-03T08:30:31;8.32;;;4.10;;
37280;SDS011;23169;41.804;12.596;2022-08-03T08:33:00;9.55;;;4.20;;
37280;SDS011;23169;41.804;12.596;2022-08-03T08:35:29;9.90;;;4.22;;
37280;SDS011;23169;41.804;12.596;2022-08-03T08:37:58;11.00;;;4.43;;
37280;SDS011;23169;41.804;12.596;2022-08-03T08:40:28;7.63;;;3.42;;
37280;SDS011;23169;41.804;12.596;2022-08-03T08:42:56;12.73;;;5.03;;
37280;SDS011;23169;41.804;12.596;2022-08-03T08:45:24;8.52;;;3.78;;
37280;SDS011;23169;41.804;12.596;2022-08-03T08:47:54;10.10;;;3.95;;
37280;SDS011;23169;41.804;12.596;2022-08-03T08:50:24;8.98;;;3.85;;
37280;SDS011;23169;41.804;12.596;2022-08-03T08:52:53;7.90;;;3.88;;
37280;SDS011;23169;41.804;12.596;2022-08-03T08:55:23;9.05;;;3.97;;
37280;SDS011;23169;41.804;12.596;2022-08-03T08:57:54;6.55;;;3.90;;
37280;SDS011;23169;41.804;12.596;2022-08-03T09:00:31;6.63;;;3.70;;
37280;SDS011;23169;41.804;12.596;2022-08-03T09:02:59;6.13;;;3.75;;
37280;SDS011;23169;41.804;12.596;2022-08-03T09:05:28;8.27;;;3.92;;
37280;SDS011;23169;41.804;12.596;2022-08-03T09:07:59;9.88;;;3.65;;
37280;SDS011;23169;41.804;12.596;2022-08-03T09:10:29;8.68;;;3.63;;
37280;SDS011;23169;41.804;12.596;2022-08-03T09:12:57;6.38;;;3.58;;
37280;SDS011;23169;41.804;12.596;2022-08-03T09:15:29;12.57;;;3.80;;
37280;SDS011;23169;41.804;12.596;2022-08-03T09:18:00;6.65;;;3.47;;
37280;SDS011;23169;41.804;12.596;2022-08-03T09:20:32;7.68;;;3.90;;
37280;SDS011;23169;41.804;12.596;2022-08-03T09:25:39;8.88;;;3.45;;
37280;SDS011;23169;41.804;12.596;2022-08-03T09:28:10;8.15;;;4.53;;
37280;SDS011;23169;41.804;12.596;2022-08-03T09:30:44;6.68;;;3.45;;
37280;SDS011;23169;41.804;12.596;2022-08-03T09:33:24;7.82;;;3.88;;
37280;SDS011;23169;41.804;12.596;2022-08-03T09:35:53;10.10;;;4.07;;
37280;SDS011;23169;41.804;12.596;2022-08-03T09:38:24;5.25;;;3.80;;
37280;SDS011;23169;41.804;12.596;2022-08-03T09:40:54;8.27;;;4.05;;
37280;SDS011;23169;41.804;12.596;2022-08-03T09:43:23;7.55;;;3.70;;
37280;SDS011;23169;41.804;12.596;2022-08-03T09:46:02;7.13;;;3.78;;
37280;SDS011;23169;41.804;12.596;2022-08-03T09:48:32;4.40;;;3.38;;
37280;SDS011;23169;41.804;12.596;2022-08-03T09:51:03;6.35;;;4.13;;
37280;SDS011;23169;41.804;12.596;2022-08-03T09:53:31;8.45;;;3.80;;
37280;SDS011;23169;41.804;12.596;2022-08-03T09:56:14;7.00;;;3.60;;
37280;SDS011;23169;41.804;12.596;2022-08-03T09:58:44;7.70;;;4.05;;
37280;SDS011;23169;41.804;12.596;2022-08-03T10:01:17;12.27;;;4.00;;
37280;SDS011;23169;41.804;12.596;2022-08-03T10:03:45;9.50;;;4.32;;
37280;SDS011;23169;41.804;12.596;2022-08-03T10:06:26;5.75;;;4.20;;
37280;SDS011;23169;41.804;12.596;2022-08-03T10:11:37;9.73;;;4.50;;
37280;SDS011;23169;41.804;12.596;2022-08-03T10:14:07;7.55;;;4.07;;
37280;SDS011;23169;41.804;12.596;2022-08-03T10:16:46;9.02;;;3.72;;
37280;SDS011;23169;41.804;12.596;2022-08-03T10:19:15;10.55;;;4.10;;
37280;SDS011;23169;41.804;12.596;2022-08-03T10:21:48;7.38;;;3.92;;
37280;SDS011;23169;41.804;12.596;2022-08-03T10:24:23;9.32;;;4.32;;
37280;SDS011;23169;41.804;12.596;2022-08-03T10:27:00;9.00;;;3.63;;
37280;SDS011;23169;41.804;12.596;2022-08-03T10:29:36;10.13;;;3.92;;
37280;SDS011;23169;41.804;12.596;2022-08-03T10:32:09;8.13;;;3.83;;
37280;SDS011;23169;41.804;12.596;2022-08-03T10:34:45;8.90;;;3.65;;
37280;SDS011;23169;41.804;12.596;2022-08-03T10:37:17;5.78;;;3.95;;
37280;SDS011;23169;41.804;12.596;2022-08-03T10:39:47;7.30;;;3.50;;
37280;SDS011;23169;41.804;12.596;2022-08-03T10:42:23;13.35;;;3.72;;
37280;SDS011;23169;41.804;12.596;2022-08-03T10:44:57;11.95;;;3.90;;
37280;SDS011;23169;41.804;12.596;2022-08-03T10:50:08;11.68;;;3.78;;
37280;SDS011;23169;41.804;12.596;2022-08-03T10:58:45;9.82;;;3.50;;
37280;SDS011;23169;41.804;12.596;2022-08-03T11:01:04;6.88;;;3.03;;
37280;SDS011;23169;41.804;12.596;2022-08-03T11:03:33;5.15;;;3.30;;
37280;SDS011;23169;41.804;12.596;2022-08-03T11:09:13;7.25;;;3.85;;
37280;SDS011;23169;41.804;12.596;2022-08-03T11:11:45;7.28;;;3.42;;
37280;SDS011;23169;41.804;12.596;2022-08-03T11:14:18;6.43;;;3.20;;
37280;SDS011;23169;41.804;12.596;2022-08-03T11:17:05;6.63;;;3.15;;
37280;SDS011;23169;41.804;12.596;2022-08-03T11:19:42;8.68;;;2.78;;
37280;SDS011;23169;41.804;12.596;2022-08-03T11:22:17;8.18;;;3.08;;
37280;SDS011;23169;41.804;12.596;2022-08-03T11:27:33;5.70;;;3.20;;
37280;SDS011;23169;41.804;12.596;2022-08-03T11:48:34;8.25;;;3.47;;
37280;SDS011;23169;41.804;12.596;2022-08-03T11:51:05;7.97;;;2.85;;
37280;SDS011;23169;41.804;12.596;2022-08-03T11:53:34;5.38;;;3.35;;
37280;SDS011;23169;41.804;12.596;2022-08-03T11:56:02;6.75;;;3.30;;
37280;SDS011;23169;41.804;12.596;2022-08-03T11:58:31;5.82;;;3.08;;
37280;SDS011;23169;41.804;12.596;2022-08-03T12:01:05;4.68;;;2.92;;
37280;SDS011;23169;41.804;12.596;2022-08-03T12:03:35;8.55;;;3.75;;
37280;SDS011;23169;41.804;12.596;2022-08-03T12:06:03;7.40;;;3.45;;
37280;SDS011;23169;41.804;12.596;2022-08-03T12:08:37;9.05;;;3.17;;
37280;SDS011;23169;41.804;12.596;2022-08-03T12:11:09;6.72;;;3.00;;
37280;SDS011;23169;41.804;12.596;2022-08-03T12:16:15;6.75;;;2.75;;
37280;SDS011;23169;41.804;12.596;2022-08-03T12:19:01;6.32;;;3.17;;
37280;SDS011;23169;41.804;12.596;2022-08-03T12:21:30;5.43;;;3.10;;
37280;SDS011;23169;41.804;12.596;2022-08-03T12:24:02;6.43;;;3.60;;
37280;SDS011;23169;41.804;12.596;2022-08-03T12:26:45;8.82;;;3.22;;
37280;SDS011;23169;41.804;12.596;2022-08-03T12:29:24;7.43;;;3.45;;
37280;SDS011;23169;41.804;12.596;2022-08-03T12:32:13;8.05;;;3.15;;
37280;SDS011;23169;41.804;12.596;2022-08-03T12:34:46;5.80;;;3.28;;
37280;SDS011;23169;41.804;12.596;2022-08-03T12:37:18;6.07;;;3.25;;
37280;SDS011;23169;41.804;12.596;2022-08-03T12:39:54;5.22;;;2.90;;
37280;SDS011;23169;41.804;12.596;2022-08-03T12:42:41;7.13;;;3.03;;
37280;SDS011;23169;41.804;12.596;2022-08-03T12:45:22;4.68;;;2.75;;
37280;SDS011;23169;41.804;12.596;2022-08-03T12:47:54;7.00;;;3.10;;
37280;SDS011;23169;41.804;12.596;2022-08-03T12:52:59;5.07;;;2.60;;
37280;SDS011;23169;41.804;12.596;2022-08-03T12:55:30;6.00;;;2.80;;
37280;SDS011;23169;41.804;12.596;2022-08-03T12:58:03;5.68;;;2.45;;
37280;SDS011;23169;41.804;12.596;2022-08-03T13:00:36;5.03;;;2.78;;
37280;SDS011;23169;41.804;12.596;2022-08-03T13:03:05;4.97;;;2.70;;
37280;SDS011;23169;41.804;12.596;2022-08-03T13:05:43;10.70;;;3.38;;
37280;SDS011;23169;41.804;12.596;2022-08-03T13:10:48;2.70;;;2.50;;
37280;SDS011;23169;41.804;12.596;2022-08-03T13:13:16;3.40;;;2.40;;
37280;SDS011;23169;41.804;12.596;2022-08-03T13:15:47;3.45;;;2.25;;
37280;SDS011;23169;41.804;12.596;2022-08-03T13:18:15;3.75;;;2.33;;
37280;SDS011;23169;41.804;12.596;2022-08-03T13:20:43;6.45;;;3.03;;
37280;SDS011;23169;41.804;12.596;2022-08-03T13:23:12;5.57;;;2.40;;
37280;SDS011;23169;41.804;12.596;2022-08-03T13:25:40;6.80;;;2.88;;
37280;SDS011;23169;41.804;12.596;2022-08-03T13:28:08;4.05;;;2.30;;
37280;SDS011;23169;41.804;12.596;2022-08-03T13:30:37;3.83;;;2.58;;
37280;SDS011;23169;41.804;12.596;2022-08-03T13:33:05;6.60;;;2.83;;
37280;SDS011;23169;41.804;12.596;2022-08-03T13:35:42;2.40;;;2.20;;
37280;SDS011;23169;41.804;12.596;2022-08-03T13:38:11;2.80;;;2.13;;
37280;SDS011;23169;41.804;12.596;2022-08-03T13:40:39;5.30;;;2.72;;
37280;SDS011;23169;41.804;12.596;2022-08-03T13:43:07;2.17;;;1.98;;
37280;SDS011;23169;41.804;12.596;2022-08-03T13:45:36;4.65;;;2.53;;
37280;SDS011;23169;41.804;12.596;2022-08-03T13:48:04;5.72;;;2.10;;
37280;SDS011;23169;41.804;12.596;2022-08-03T13:50:33;4.82;;;2.20;;
37280;SDS011;23169;41.804;12.596;2022-08-03T13:53:02;4.78;;;2.30;;
37280;SDS011;23169;41.804;12.596;2022-08-03T13:55:31;4.85;;;2.45;;
37280;SDS011;23169;41.804;12.596;2022-08-03T13:58:00;4.93;;;2.08;;
37280;SDS011;23169;41.804;12.596;2022-08-03T14:00:30;3.58;;;2.30;;
37280;SDS011;23169;41.804;12.596;2022-08-03T14:02:59;6.40;;;2.08;;
37280;SDS011;23169;41.804;12.596;2022-08-03T14:05:28;5.82;;;2.13;;
37280;SDS011;23169;41.804;12.596;2022-08-03T14:07:58;4.78;;;2.20;;
37280;SDS011;23169;41.804;12.596;2022-08-03T14:10:34;4.28;;;2.33;;
37280;SDS011;23169;41.804;12.596;2022-08-03T14:13:04;3.17;;;2.28;;
37280;SDS011;23169;41.804;12.596;2022-08-03T14:15:33;3.53;;;2.20;;
37280;SDS011;23169;41.804;12.596;2022-08-03T14:18:01;1.65;;;1.48;;
37280;SDS011;23169;41.804;12.596;2022-08-03T14:20:31;2.92;;;2.40;;
37280;SDS011;23169;41.804;12.596;2022-08-03T14:22:59;2.35;;;1.80;;
37280;SDS011;23169;41.804;12.596;2022-08-03T14:25:30;4.70;;;2.00;;
37280;SDS011;23169;41.804;12.596;2022-08-03T14:27:59;3.25;;;1.80;;
37280;SDS011;23169;41.804;12.596;2022-08-03T14:30:28;2.25;;;2.05;;
37280;SDS011;23169;41.804;12.596;2022-08-03T14:32:57;4.10;;;1.85;;
37280;SDS011;23169;41.804;12.596;2022-08-03T14:35:25;4.75;;;2.28;;
37280;SDS011;23169;41.804;12.596;2022-08-03T14:37:54;4.00;;;2.35;;
37280;SDS011;23169;41.804;12.596;2022-08-03T14:40:22;2.28;;;1.75;;
37280;SDS011;23169;41.804;12.596;2022-08-03T14:42:50;3.08;;;1.77;;
37280;SDS011;23169;41.804;12.596;2022-08-03T14:45:18;2.53;;;2.00;;
37280;SDS011;23169;41.804;12.596;2022-08-03T14:48:02;5.82;;;2.28;;
37280;SDS011;23169;41.804;12.596;2022-08-03T14:50:36;3.97;;;2.30;;
37280;SDS011;23169;41.804;12.596;2022-08-03T14:53:07;2.30;;;2.08;;
37280;SDS011;23169;41.804;12.596;2022-08-03T14:55:36;4.00;;;2.30;;
37280;SDS011;23169;41.804;12.596;2022-08-03T14:58:05;2.92;;;2.13;;
37280;SDS011;23169;41.804;12.596;2022-08-03T15:00:34;3.22;;;2.00;;
37280;SDS011;23169;41.804;12.596;2022-08-03T15:03:03;3.88;;;1.95;;
37280;SDS011;23169;41.804;12.596;2022-08-03T15:05:31;2.20;;;1.80;;
37280;SDS011;23169;41.804;12.596;2022-08-03T15:08:00;3.03;;;1.73;;
37280;SDS011;23169;41.804;12.596;2022-08-03T15:10:29;5.70;;;2.30;;
37280;SDS011;23169;41.804;12.596;2022-08-03T15:13:00;3.97;;;2.20;;
37280;SDS011;23169;41.804;12.596;2022-08-03T15:15:29;3.83;;;2.55;;
37280;SDS011;23169;41.804;12.596;2022-08-03T15:17:57;3.63;;;2.30;;
37280;SDS011;23169;41.804;12.596;2022-08-03T15:20:25;5.35;;;2.60;;
37280;SDS011;23169;41.804;12.596;2022-08-03T15:22:53;5.07;;;1.95;;
37280;SDS011;23169;41.804;12.596;2022-08-03T15:25:22;2.38;;;1.83;;
37280;SDS011;23169;41.804;12.596;2022-08-03T15:27:51;4.65;;;2.05;;
37280;SDS011;23169;41.804;12.596;2022-08-03T15:30:19;1.83;;;1.60;;
37280;SDS011;23169;41.804;12.596;2022-08-03T15:32:51;1.80;;;1.70;;
37280;SDS011;23169;41.804;12.596;2022-08-03T15:35:19;5.93;;;2.15;;
37280;SDS011;23169;41.804;12.596;2022-08-03T15:37:47;3.10;;;2.10;;
37280;SDS011;23169;41.804;12.596;2022-08-03T15:40:15;3.63;;;1.73;;
37280;SDS011;23169;41.804;12.596;2022-08-03T15:42:44;2.53;;;1.80;;
37280;SDS011;23169;41.804;12.596;2022-08-03T15:45:12;2.60;;;1.70;;
37280;SDS011;23169;41.804;12.596;2022-08-03T15:47:40;1.83;;;1.73;;
37280;SDS011;23169;41.804;12.596;2022-08-03T15:50:08;3.00;;;1.60;;